sensor_id;sensor_type;location;lat;lon;timestamp;P1;durP1;ratioP1;P2;durP2;ratioP2
19798;SDS011;10059;59.850;10.454;2023-08-06T00:00:38;8.33;;;3.07;;
19798;SDS011;10059;59.850;10.454;2023-08-06T00:03:05;7.47;;;3.40;;
19798;SDS011;10059;59.850;10.454;2023-08-06T00:05:32;12.07;;;3.63;;
19798;SDS011;10059;59.850;10.454;2023-08-06T00:07:59;9.53;;;3.27;;
19798;SDS011;10059;59.850;10.454;2023-08-06T00:10:26;7.50;;;3.00;;
19798;SDS011;10059;59.850;10.454;2023-08-06T00:12:53;7.60;;;3.10;;
19798;SDS011;10059;59.850;10.454;2023-08-06T00:15:20;9.17;;;3.30;;
19798;SDS011;10059;59.850;10.454;2023-08-06T00:17:48;14.73;;;3.40;;
19798;SDS011;10059;59.850;10.454;2023-08-06T00:20:15;6.47;;;2.80;;
19798;SDS011;10059;59.850;10.454;2023-08-06T00:22:41;13.10;;;3.17;;
19798;SDS011;10059;59.850;10.454;2023-08-06T00:25:08;8.90;;;2.63;;
19798;SDS011;10059;59.850;10.454;2023-08-06T00:27:35;9.03;;;3.23;;
19798;SDS011;10059;59.850;10.454;2023-08-06T00:30:02;7.10;;;2.93;;
19798;SDS011;10059;59.850;10.454;2023-08-06T00:32:29;10.33;;;3.50;;
19798;SDS011;10059;59.850;10.454;2023-08-06T00:34:58;8.27;;;3.13;;
19798;SDS011;10059;59.850;10.454;2023-08-06T00:37:24;12.43;;;3.67;;
19798;SDS011;10059;59.850;10.454;2023-08-06T00:39:51;10.87;;;3.13;;
19798;SDS011;10059;59.850;10.454;2023-08-06T00:42:18;13.33;;;3.60;;
19798;SDS011;10059;59.850;10.454;2023-08-06T00:44:46;9.77;;;3.53;;
19798;SDS011;10059;59.850;10.454;2023-08-06T00:47:13;7.90;;;3.33;;
19798;SDS011;10059;59.850;10.454;2023-08-06T00:49:40;8.00;;;3.00;;
19798;SDS011;10059;59.850;10.454;2023-08-06T00:52:08;11.33;;;3.33;;
19798;SDS011;10059;59.850;10.454;2023-08-06T00:54:36;7.13;;;3.20;;
19798;SDS011;10059;59.850;10.454;2023-08-06T00:57:03;9.93;;;3.20;;
19798;SDS011;10059;59.850;10.454;2023-08-06T00:59:32;17.70;;;4.00;;
19798;SDS011;10059;59.850;10.454;2023-08-06T01:01:59;14.77;;;3.77;;
19798;SDS011;10059;59.850;10.454;2023-08-06T01:04:25;19.73;;;3.77;;
19798;SDS011;10059;59.850;10.454;2023-08-06T01:06:55;16.40;;;3.70;;
19798;SDS011;10059;59.850;10.454;2023-08-06T01:09:38;12.77;;;3.60;;
19798;SDS011;10059;59.850;10.454;2023-08-06T01:12:13;17.57;;;4.17;;
19798;SDS011;10059;59.850;10.454;2023-08-06T01:14:51;13.70;;;3.73;;
19798;SDS011;10059;59.850;10.454;2023-08-06T01:17:26;13.80;;;3.70;;
19798;SDS011;10059;59.850;10.454;2023-08-06T01:19:55;8.70;;;3.73;;
19798;SDS011;10059;59.850;10.454;2023-08-06T01:22:23;16.93;;;3.33;;
19798;SDS011;10059;59.850;10.454;2023-08-06T01:24:50;9.60;;;3.30;;
19798;SDS011;10059;59.850;10.454;2023-08-06T01:27:20;11.33;;;3.90;;
19798;SDS011;10059;59.850;10.454;2023-08-06T01:29:55;10.10;;;3.80;;
19798;SDS011;10059;59.850;10.454;2023-08-06T01:32:29;7.10;;;3.43;;
19798;SDS011;10059;59.850;10.454;2023-08-06T01:34:59;11.60;;;3.53;;
19798;SDS011;10059;59.850;10.454;2023-08-06T01:37:28;11.70;;;3.40;;
19798;SDS011;10059;59.850;10.454;2023-08-06T01:39:55;14.17;;;3.97;;
19798;SDS011;10059;59.850;10.454;2023-08-06T01:42:22;12.97;;;3.43;;
19798;SDS011;10059;59.850;10.454;2023-08-06T01:44:49;10.97;;;3.37;;
19798;SDS011;10059;59.850;10.454;2023-08-06T01:47:16;12.47;;;3.53;;
19798;SDS011;10059;59.850;10.454;2023-08-06T01:49:43;10.63;;;3.90;;
19798;SDS011;10059;59.850;10.454;2023-08-06T01:52:10;12.20;;;3.80;;
19798;SDS011;10059;59.850;10.454;2023-08-06T01:54:38;11.97;;;3.60;;
19798;SDS011;10059;59.850;10.454;2023-08-06T01:57:05;11.47;;;3.50;;
19798;SDS011;10059;59.850;10.454;2023-08-06T01:59:32;14.20;;;3.77;;
19798;SDS011;10059;59.850;10.454;2023-08-06T02:01:59;10.40;;;3.20;;
19798;SDS011;10059;59.850;10.454;2023-08-06T02:04:25;12.73;;;3.57;;
19798;SDS011;10059;59.850;10.454;2023-08-06T02:06:52;12.77;;;3.43;;
19798;SDS011;10059;59.850;10.454;2023-08-06T02:09:19;10.17;;;3.43;;
19798;SDS011;10059;59.850;10.454;2023-08-06T02:11:47;10.33;;;3.30;;
19798;SDS011;10059;59.850;10.454;2023-08-06T02:14:14;9.93;;;3.50;;
19798;SDS011;10059;59.850;10.454;2023-08-06T02:16:41;9.80;;;3.17;;
19798;SDS011;10059;59.850;10.454;2023-08-06T02:19:07;9.50;;;3.77;;
19798;SDS011;10059;59.850;10.454;2023-08-06T02:21:34;16.13;;;3.60;;
19798;SDS011;10059;59.850;10.454;2023-08-06T02:24:01;11.57;;;3.50;;
19798;SDS011;10059;59.850;10.454;2023-08-06T02:26:28;8.43;;;3.10;;
19798;SDS011;10059;59.850;10.454;2023-08-06T02:28:56;11.77;;;3.60;;
19798;SDS011;10059;59.850;10.454;2023-08-06T02:31:23;8.43;;;3.43;;
19798;SDS011;10059;59.850;10.454;2023-08-06T02:33:50;13.13;;;3.10;;
19798;SDS011;10059;59.850;10.454;2023-08-06T02:36:17;12.83;;;3.67;;
19798;SDS011;10059;59.850;10.454;2023-08-06T02:38:43;10.07;;;3.50;;
19798;SDS011;10059;59.850;10.454;2023-08-06T02:41:10;9.90;;;3.20;;
19798;SDS011;10059;59.850;10.454;2023-08-06T02:43:37;10.37;;;3.60;;
19798;SDS011;10059;59.850;10.454;2023-08-06T02:46:05;11.07;;;3.30;;
19798;SDS011;10059;59.850;10.454;2023-08-06T02:48:32;7.80;;;2.90;;
19798;SDS011;10059;59.850;10.454;2023-08-06T02:50:59;14.90;;;4.10;;
19798;SDS011;10059;59.850;10.454;2023-08-06T02:53:26;9.57;;;3.40;;
19798;SDS011;10059;59.850;10.454;2023-08-06T02:55:53;7.27;;;3.30;;
19798;SDS011;10059;59.850;10.454;2023-08-06T02:58:20;18.37;;;3.30;;
19798;SDS011;10059;59.850;10.454;2023-08-06T03:00:58;10.03;;;3.27;;
19798;SDS011;10059;59.850;10.454;2023-08-06T03:03:29;15.27;;;3.97;;
19798;SDS011;10059;59.850;10.454;2023-08-06T03:05:56;9.63;;;3.57;;
19798;SDS011;10059;59.850;10.454;2023-08-06T03:08:22;12.23;;;3.43;;
19798;SDS011;10059;59.850;10.454;2023-08-06T03:10:50;9.07;;;2.97;;
19798;SDS011;10059;59.850;10.454;2023-08-06T03:13:17;12.90;;;3.40;;
19798;SDS011;10059;59.850;10.454;2023-08-06T03:15:51;8.07;;;3.27;;
19798;SDS011;10059;59.850;10.454;2023-08-06T03:18:18;12.10;;;3.23;;
19798;SDS011;10059;59.850;10.454;2023-08-06T03:20:46;8.53;;;3.10;;
19798;SDS011;10059;59.850;10.454;2023-08-06T03:23:13;17.60;;;3.43;;
19798;SDS011;10059;59.850;10.454;2023-08-06T03:25:40;11.10;;;3.40;;
19798;SDS011;10059;59.850;10.454;2023-08-06T03:28:07;11.17;;;3.40;;
19798;SDS011;10059;59.850;10.454;2023-08-06T03:30:34;7.87;;;3.20;;
19798;SDS011;10059;59.850;10.454;2023-08-06T03:33:00;7.80;;;3.30;;
19798;SDS011;10059;59.850;10.454;2023-08-06T03:35:27;9.37;;;3.10;;
19798;SDS011;10059;59.850;10.454;2023-08-06T03:37:56;17.07;;;3.60;;
19798;SDS011;10059;59.850;10.454;2023-08-06T03:40:22;5.90;;;2.83;;
19798;SDS011;10059;59.850;10.454;2023-08-06T03:42:49;10.03;;;3.30;;
19798;SDS011;10059;59.850;10.454;2023-08-06T03:45:16;9.90;;;3.10;;
19798;SDS011;10059;59.850;10.454;2023-08-06T03:47:43;13.57;;;3.20;;
19798;SDS011;10059;59.850;10.454;2023-08-06T03:50:10;9.80;;;3.70;;
19798;SDS011;10059;59.850;10.454;2023-08-06T03:52:36;9.70;;;3.53;;
19798;SDS011;10059;59.850;10.454;2023-08-06T03:55:05;11.60;;;3.63;;
19798;SDS011;10059;59.850;10.454;2023-08-06T03:57:32;8.67;;;3.20;;
19798;SDS011;10059;59.850;10.454;2023-08-06T03:59:59;14.47;;;3.43;;
19798;SDS011;10059;59.850;10.454;2023-08-06T04:02:26;10.00;;;3.30;;
19798;SDS011;10059;59.850;10.454;2023-08-06T04:04:52;17.60;;;3.20;;
19798;SDS011;10059;59.850;10.454;2023-08-06T04:07:19;15.80;;;3.43;;
19798;SDS011;10059;59.850;10.454;2023-08-06T04:09:53;11.93;;;3.23;;
19798;SDS011;10059;59.850;10.454;2023-08-06T04:12:22;14.47;;;3.50;;
19798;SDS011;10059;59.850;10.454;2023-08-06T04:14:49;12.13;;;3.30;;
19798;SDS011;10059;59.850;10.454;2023-08-06T04:17:17;12.53;;;3.20;;
19798;SDS011;10059;59.850;10.454;2023-08-06T04:19:45;10.63;;;3.20;;
19798;SDS011;10059;59.850;10.454;2023-08-06T04:39:06;12.17;;;3.27;;
19798;SDS011;10059;59.850;10.454;2023-08-06T04:41:33;7.57;;;3.30;;
19798;SDS011;10059;59.850;10.454;2023-08-06T04:44:00;8.27;;;3.13;;
19798;SDS011;10059;59.850;10.454;2023-08-06T04:46:26;10.03;;;3.53;;
19798;SDS011;10059;59.850;10.454;2023-08-06T04:48:53;11.97;;;3.47;;
19798;SDS011;10059;59.850;10.454;2023-08-06T04:51:20;13.87;;;3.33;;
19798;SDS011;10059;59.850;10.454;2023-08-06T04:53:47;8.30;;;3.13;;
19798;SDS011;10059;59.850;10.454;2023-08-06T04:56:15;10.13;;;3.50;;
19798;SDS011;10059;59.850;10.454;2023-08-06T04:58:42;9.00;;;3.10;;
19798;SDS011;10059;59.850;10.454;2023-08-06T05:01:08;11.33;;;3.47;;
19798;SDS011;10059;59.850;10.454;2023-08-06T05:03:35;8.43;;;3.10;;
19798;SDS011;10059;59.850;10.454;2023-08-06T05:06:02;12.03;;;3.20;;
19798;SDS011;10059;59.850;10.454;2023-08-06T05:08:29;9.83;;;2.83;;
19798;SDS011;10059;59.850;10.454;2023-08-06T05:10:56;12.37;;;3.10;;
19798;SDS011;10059;59.850;10.454;2023-08-06T05:13:24;10.23;;;3.23;;
19798;SDS011;10059;59.850;10.454;2023-08-06T05:15:52;8.43;;;2.93;;
19798;SDS011;10059;59.850;10.454;2023-08-06T05:18:19;6.77;;;3.10;;
19798;SDS011;10059;59.850;10.454;2023-08-06T05:20:46;6.13;;;2.90;;
19798;SDS011;10059;59.850;10.454;2023-08-06T05:23:14;8.70;;;3.10;;
19798;SDS011;10059;59.850;10.454;2023-08-06T05:25:41;8.00;;;2.97;;
19798;SDS011;10059;59.850;10.454;2023-08-06T05:28:08;11.20;;;3.60;;
19798;SDS011;10059;59.850;10.454;2023-08-06T05:30:39;7.30;;;3.00;;
19798;SDS011;10059;59.850;10.454;2023-08-06T05:33:06;10.30;;;3.10;;
19798;SDS011;10059;59.850;10.454;2023-08-06T05:35:33;9.13;;;3.37;;
19798;SDS011;10059;59.850;10.454;2023-08-06T05:38:00;8.90;;;3.10;;
19798;SDS011;10059;59.850;10.454;2023-08-06T05:40:27;7.63;;;2.73;;
19798;SDS011;10059;59.850;10.454;2023-08-06T05:42:54;8.43;;;2.90;;
19798;SDS011;10059;59.850;10.454;2023-08-06T05:45:21;9.63;;;3.23;;
19798;SDS011;10059;59.850;10.454;2023-08-06T05:47:49;9.60;;;3.27;;
19798;SDS011;10059;59.850;10.454;2023-08-06T05:50:16;7.30;;;2.97;;
19798;SDS011;10059;59.850;10.454;2023-08-06T05:52:43;10.30;;;3.03;;
19798;SDS011;10059;59.850;10.454;2023-08-06T05:55:10;8.60;;;2.97;;
19798;SDS011;10059;59.850;10.454;2023-08-06T05:57:36;8.67;;;2.83;;
19798;SDS011;10059;59.850;10.454;2023-08-06T06:00:04;7.90;;;3.03;;
19798;SDS011;10059;59.850;10.454;2023-08-06T06:02:31;5.57;;;2.70;;
19798;SDS011;10059;59.850;10.454;2023-08-06T06:05:00;14.40;;;3.23;;
19798;SDS011;10059;59.850;10.454;2023-08-06T06:07:26;10.97;;;3.03;;
19798;SDS011;10059;59.850;10.454;2023-08-06T06:09:53;7.53;;;3.00;;
19798;SDS011;10059;59.850;10.454;2023-08-06T06:12:20;7.60;;;3.40;;
19798;SDS011;10059;59.850;10.454;2023-08-06T06:14:47;11.20;;;3.13;;
19798;SDS011;10059;59.850;10.454;2023-08-06T06:17:14;8.07;;;3.33;;
19798;SDS011;10059;59.850;10.454;2023-08-06T06:19:41;8.93;;;3.33;;
19798;SDS011;10059;59.850;10.454;2023-08-06T06:22:09;8.80;;;3.40;;
19798;SDS011;10059;59.850;10.454;2023-08-06T06:24:36;9.20;;;2.80;;
19798;SDS011;10059;59.850;10.454;2023-08-06T06:27:03;9.83;;;3.10;;
19798;SDS011;10059;59.850;10.454;2023-08-06T06:29:30;7.07;;;3.40;;
19798;SDS011;10059;59.850;10.454;2023-08-06T06:31:57;7.07;;;3.40;;
19798;SDS011;10059;59.850;10.454;2023-08-06T06:34:24;7.27;;;3.17;;
19798;SDS011;10059;59.850;10.454;2023-08-06T06:36:51;8.50;;;3.17;;
19798;SDS011;10059;59.850;10.454;2023-08-06T06:39:20;10.53;;;3.00;;
19798;SDS011;10059;59.850;10.454;2023-08-06T06:41:47;5.17;;;3.03;;
19798;SDS011;10059;59.850;10.454;2023-08-06T06:44:14;8.07;;;2.77;;
19798;SDS011;10059;59.850;10.454;2023-08-06T06:46:41;4.70;;;2.80;;
19798;SDS011;10059;59.850;10.454;2023-08-06T06:49:08;10.23;;;3.00;;
19798;SDS011;10059;59.850;10.454;2023-08-06T06:51:35;7.70;;;2.93;;
19798;SDS011;10059;59.850;10.454;2023-08-06T06:54:02;9.73;;;3.20;;
19798;SDS011;10059;59.850;10.454;2023-08-06T06:56:30;8.57;;;3.37;;
19798;SDS011;10059;59.850;10.454;2023-08-06T06:58:57;6.50;;;2.67;;
19798;SDS011;10059;59.850;10.454;2023-08-06T07:01:23;7.40;;;3.00;;
19798;SDS011;10059;59.850;10.454;2023-08-06T07:03:50;6.00;;;2.93;;
19798;SDS011;10059;59.850;10.454;2023-08-06T07:06:17;6.13;;;2.80;;
19798;SDS011;10059;59.850;10.454;2023-08-06T07:08:44;7.47;;;2.90;;
19798;SDS011;10059;59.850;10.454;2023-08-06T07:11:11;5.07;;;2.70;;
19798;SDS011;10059;59.850;10.454;2023-08-06T07:13:39;8.07;;;2.90;;
19798;SDS011;10059;59.850;10.454;2023-08-06T07:16:06;12.93;;;2.93;;
19798;SDS011;10059;59.850;10.454;2023-08-06T07:18:33;7.60;;;2.60;;
19798;SDS011;10059;59.850;10.454;2023-08-06T07:20:59;9.07;;;2.90;;
19798;SDS011;10059;59.850;10.454;2023-08-06T07:23:26;8.47;;;2.90;;
19798;SDS011;10059;59.850;10.454;2023-08-06T07:25:53;8.30;;;2.87;;
19798;SDS011;10059;59.850;10.454;2023-08-06T07:28:20;6.33;;;3.00;;
19798;SDS011;10059;59.850;10.454;2023-08-06T07:30:48;8.07;;;2.83;;
19798;SDS011;10059;59.850;10.454;2023-08-06T07:33:16;4.60;;;2.53;;
19798;SDS011;10059;59.850;10.454;2023-08-06T07:35:42;6.87;;;2.90;;
19798;SDS011;10059;59.850;10.454;2023-08-06T07:38:10;9.63;;;2.90;;
19798;SDS011;10059;59.850;10.454;2023-08-06T07:40:36;8.43;;;2.60;;
19798;SDS011;10059;59.850;10.454;2023-08-06T07:43:03;5.30;;;2.60;;
19798;SDS011;10059;59.850;10.454;2023-08-06T07:45:32;6.17;;;2.63;;
19798;SDS011;10059;59.850;10.454;2023-08-06T07:48:01;7.97;;;2.53;;
19798;SDS011;10059;59.850;10.454;2023-08-06T07:50:29;5.90;;;3.23;;
19798;SDS011;10059;59.850;10.454;2023-08-06T07:52:56;8.03;;;3.10;;
19798;SDS011;10059;59.850;10.454;2023-08-06T07:55:22;10.47;;;3.00;;
19798;SDS011;10059;59.850;10.454;2023-08-06T07:57:49;9.73;;;2.77;;
19798;SDS011;10059;59.850;10.454;2023-08-06T08:00:16;6.73;;;3.00;;
19798;SDS011;10059;59.850;10.454;2023-08-06T08:02:44;6.07;;;2.70;;
19798;SDS011;10059;59.850;10.454;2023-08-06T08:05:12;6.43;;;2.50;;
19798;SDS011;10059;59.850;10.454;2023-08-06T08:07:39;5.43;;;2.53;;
19798;SDS011;10059;59.850;10.454;2023-08-06T08:10:06;8.57;;;2.60;;
19798;SDS011;10059;59.850;10.454;2023-08-06T08:12:33;4.60;;;2.20;;
19798;SDS011;10059;59.850;10.454;2023-08-06T08:15:01;6.87;;;2.47;;
19798;SDS011;10059;59.850;10.454;2023-08-06T08:17:28;8.60;;;2.80;;
19798;SDS011;10059;59.850;10.454;2023-08-06T08:19:55;4.07;;;2.43;;
19798;SDS011;10059;59.850;10.454;2023-08-06T08:22:23;5.50;;;2.10;;
19798;SDS011;10059;59.850;10.454;2023-08-06T08:24:50;7.90;;;2.70;;
19798;SDS011;10059;59.850;10.454;2023-08-06T08:27:17;5.03;;;2.57;;
19798;SDS011;10059;59.850;10.454;2023-08-06T08:29:44;4.87;;;2.00;;
19798;SDS011;10059;59.850;10.454;2023-08-06T08:32:13;5.43;;;2.30;;
19798;SDS011;10059;59.850;10.454;2023-08-06T08:34:40;7.10;;;2.30;;
19798;SDS011;10059;59.850;10.454;2023-08-06T08:37:09;4.43;;;1.77;;
19798;SDS011;10059;59.850;10.454;2023-08-06T08:39:37;5.27;;;1.90;;
19798;SDS011;10059;59.850;10.454;2023-08-06T08:42:05;4.47;;;1.97;;
19798;SDS011;10059;59.850;10.454;2023-08-06T08:44:32;5.33;;;2.17;;
19798;SDS011;10059;59.850;10.454;2023-08-06T08:47:01;4.80;;;2.00;;
19798;SDS011;10059;59.850;10.454;2023-08-06T08:49:28;5.43;;;2.10;;
19798;SDS011;10059;59.850;10.454;2023-08-06T08:51:56;5.70;;;2.07;;
19798;SDS011;10059;59.850;10.454;2023-08-06T08:54:25;4.73;;;2.30;;
19798;SDS011;10059;59.850;10.454;2023-08-06T08:56:54;4.57;;;1.83;;
19798;SDS011;10059;59.850;10.454;2023-08-06T08:59:21;4.63;;;1.90;;
19798;SDS011;10059;59.850;10.454;2023-08-06T09:01:48;4.97;;;2.20;;
19798;SDS011;10059;59.850;10.454;2023-08-06T09:04:16;8.03;;;2.27;;
19798;SDS011;10059;59.850;10.454;2023-08-06T09:06:43;5.57;;;2.40;;
19798;SDS011;10059;59.850;10.454;2023-08-06T09:09:17;5.17;;;1.80;;
19798;SDS011;10059;59.850;10.454;2023-08-06T09:11:48;4.97;;;1.87;;
19798;SDS011;10059;59.850;10.454;2023-08-06T09:14:17;4.73;;;1.70;;
19798;SDS011;10059;59.850;10.454;2023-08-06T09:16:44;8.00;;;1.87;;
19798;SDS011;10059;59.850;10.454;2023-08-06T09:19:11;6.00;;;1.70;;
19798;SDS011;10059;59.850;10.454;2023-08-06T09:21:40;8.23;;;1.87;;
19798;SDS011;10059;59.850;10.454;2023-08-06T09:24:08;5.40;;;1.43;;
19798;SDS011;10059;59.850;10.454;2023-08-06T09:26:36;5.73;;;1.70;;
19798;SDS011;10059;59.850;10.454;2023-08-06T09:29:04;3.90;;;1.43;;
19798;SDS011;10059;59.850;10.454;2023-08-06T09:31:40;3.73;;;1.70;;
19798;SDS011;10059;59.850;10.454;2023-08-06T09:34:11;5.13;;;1.43;;
19798;SDS011;10059;59.850;10.454;2023-08-06T09:36:39;7.73;;;1.90;;
19798;SDS011;10059;59.850;10.454;2023-08-06T09:39:12;3.43;;;1.60;;
19798;SDS011;10059;59.850;10.454;2023-08-06T09:41:39;5.07;;;1.50;;
19798;SDS011;10059;59.850;10.454;2023-08-06T09:44:09;5.07;;;1.60;;
19798;SDS011;10059;59.850;10.454;2023-08-06T09:46:42;5.13;;;1.73;;
19798;SDS011;10059;59.850;10.454;2023-08-06T09:49:12;5.60;;;1.60;;
19798;SDS011;10059;59.850;10.454;2023-08-06T09:51:39;6.50;;;1.40;;
19798;SDS011;10059;59.850;10.454;2023-08-06T09:54:07;4.50;;;1.53;;
19798;SDS011;10059;59.850;10.454;2023-08-06T09:56:37;4.43;;;1.30;;
19798;SDS011;10059;59.850;10.454;2023-08-06T09:59:05;7.57;;;1.63;;
19798;SDS011;10059;59.850;10.454;2023-08-06T10:01:32;3.17;;;1.37;;
19798;SDS011;10059;59.850;10.454;2023-08-06T10:04:01;5.27;;;1.50;;
19798;SDS011;10059;59.850;10.454;2023-08-06T10:06:29;4.50;;;1.40;;
19798;SDS011;10059;59.850;10.454;2023-08-06T10:08:58;7.07;;;1.60;;
19798;SDS011;10059;59.850;10.454;2023-08-06T10:11:25;5.73;;;1.40;;
19798;SDS011;10059;59.850;10.454;2023-08-06T10:13:54;6.47;;;1.60;;
19798;SDS011;10059;59.850;10.454;2023-08-06T10:16:24;4.23;;;1.40;;
19798;SDS011;10059;59.850;10.454;2023-08-06T10:18:52;2.87;;;1.40;;
19798;SDS011;10059;59.850;10.454;2023-08-06T10:21:23;7.33;;;1.73;;
19798;SDS011;10059;59.850;10.454;2023-08-06T10:23:53;5.07;;;1.67;;
19798;SDS011;10059;59.850;10.454;2023-08-06T10:26:24;5.63;;;1.80;;
19798;SDS011;10059;59.850;10.454;2023-08-06T10:28:51;4.60;;;1.50;;
19798;SDS011;10059;59.850;10.454;2023-08-06T10:31:18;10.40;;;2.20;;
19798;SDS011;10059;59.850;10.454;2023-08-06T10:33:46;16.30;;;4.03;;
19798;SDS011;10059;59.850;10.454;2023-08-06T10:36:13;3.93;;;1.60;;
19798;SDS011;10059;59.850;10.454;2023-08-06T10:38:46;5.30;;;1.63;;
19798;SDS011;10059;59.850;10.454;2023-08-06T10:41:22;6.27;;;1.93;;
19798;SDS011;10059;59.850;10.454;2023-08-06T10:43:50;5.57;;;1.23;;
19798;SDS011;10059;59.850;10.454;2023-08-06T10:46:23;4.70;;;1.20;;
19798;SDS011;10059;59.850;10.454;2023-08-06T10:48:53;6.23;;;1.70;;
19798;SDS011;10059;59.850;10.454;2023-08-06T10:51:20;8.57;;;1.87;;
19798;SDS011;10059;59.850;10.454;2023-08-06T10:53:48;5.67;;;1.80;;
19798;SDS011;10059;59.850;10.454;2023-08-06T10:56:16;9.13;;;2.10;;
19798;SDS011;10059;59.850;10.454;2023-08-06T10:58:45;7.40;;;1.80;;
19798;SDS011;10059;59.850;10.454;2023-08-06T11:01:13;4.50;;;1.67;;
19798;SDS011;10059;59.850;10.454;2023-08-06T11:03:41;5.33;;;1.60;;
19798;SDS011;10059;59.850;10.454;2023-08-06T11:06:08;5.30;;;1.50;;
19798;SDS011;10059;59.850;10.454;2023-08-06T11:08:36;2.57;;;1.37;;
19798;SDS011;10059;59.850;10.454;2023-08-06T11:11:09;5.23;;;1.87;;
19798;SDS011;10059;59.850;10.454;2023-08-06T11:13:38;4.97;;;1.80;;
19798;SDS011;10059;59.850;10.454;2023-08-06T11:16:04;3.33;;;1.23;;
19798;SDS011;10059;59.850;10.454;2023-08-06T11:18:31;6.80;;;1.40;;
19798;SDS011;10059;59.850;10.454;2023-08-06T11:20:59;3.63;;;1.47;;
19798;SDS011;10059;59.850;10.454;2023-08-06T11:23:26;5.80;;;1.67;;
19798;SDS011;10059;59.850;10.454;2023-08-06T11:25:54;5.30;;;1.67;;
19798;SDS011;10059;59.850;10.454;2023-08-06T11:28:23;3.30;;;1.43;;
19798;SDS011;10059;59.850;10.454;2023-08-06T11:30:50;4.60;;;1.60;;
19798;SDS011;10059;59.850;10.454;2023-08-06T11:33:19;3.43;;;1.50;;
19798;SDS011;10059;59.850;10.454;2023-08-06T11:35:47;5.03;;;1.50;;
19798;SDS011;10059;59.850;10.454;2023-08-06T11:38:14;3.33;;;1.43;;
19798;SDS011;10059;59.850;10.454;2023-08-06T11:40:43;3.40;;;1.10;;
19798;SDS011;10059;59.850;10.454;2023-08-06T11:43:10;3.03;;;1.20;;
19798;SDS011;10059;59.850;10.454;2023-08-06T11:45:39;3.47;;;1.30;;
19798;SDS011;10059;59.850;10.454;2023-08-06T11:48:06;5.80;;;1.30;;
19798;SDS011;10059;59.850;10.454;2023-08-06T11:50:36;2.67;;;1.43;;
19798;SDS011;10059;59.850;10.454;2023-08-06T11:53:03;3.10;;;1.37;;
19798;SDS011;10059;59.850;10.454;2023-08-06T11:55:30;3.87;;;1.37;;
19798;SDS011;10059;59.850;10.454;2023-08-06T11:57:58;6.17;;;1.23;;
19798;SDS011;10059;59.850;10.454;2023-08-06T12:00:25;4.97;;;1.70;;
19798;SDS011;10059;59.850;10.454;2023-08-06T12:02:53;4.97;;;1.40;;
19798;SDS011;10059;59.850;10.454;2023-08-06T12:05:20;6.20;;;1.87;;
19798;SDS011;10059;59.850;10.454;2023-08-06T12:07:49;4.17;;;1.60;;
19798;SDS011;10059;59.850;10.454;2023-08-06T12:10:18;3.50;;;1.40;;
19798;SDS011;10059;59.850;10.454;2023-08-06T12:12:46;4.80;;;1.23;;
19798;SDS011;10059;59.850;10.454;2023-08-06T12:15:13;3.27;;;1.50;;
19798;SDS011;10059;59.850;10.454;2023-08-06T12:17:40;2.90;;;1.60;;
19798;SDS011;10059;59.850;10.454;2023-08-06T12:20:09;4.37;;;1.60;;
19798;SDS011;10059;59.850;10.454;2023-08-06T12:22:36;4.87;;;1.30;;
19798;SDS011;10059;59.850;10.454;2023-08-06T12:25:05;3.30;;;1.17;;
19798;SDS011;10059;59.850;10.454;2023-08-06T12:27:34;4.27;;;1.50;;
19798;SDS011;10059;59.850;10.454;2023-08-06T12:30:00;5.87;;;1.30;;
19798;SDS011;10059;59.850;10.454;2023-08-06T12:32:28;2.43;;;1.40;;
19798;SDS011;10059;59.850;10.454;2023-08-06T12:34:55;1.70;;;1.00;;
19798;SDS011;10059;59.850;10.454;2023-08-06T12:37:24;4.47;;;1.30;;
19798;SDS011;10059;59.850;10.454;2023-08-06T12:39:51;4.50;;;1.33;;
19798;SDS011;10059;59.850;10.454;2023-08-06T12:42:21;2.10;;;1.17;;
19798;SDS011;10059;59.850;10.454;2023-08-06T12:44:53;4.23;;;1.30;;
19798;SDS011;10059;59.850;10.454;2023-08-06T12:47:21;2.00;;;1.10;;
19798;SDS011;10059;59.850;10.454;2023-08-06T12:49:47;3.40;;;1.30;;
19798;SDS011;10059;59.850;10.454;2023-08-06T12:52:15;1.80;;;1.20;;
19798;SDS011;10059;59.850;10.454;2023-08-06T12:54:46;2.53;;;1.20;;
19798;SDS011;10059;59.850;10.454;2023-08-06T12:57:16;3.07;;;1.20;;
19798;SDS011;10059;59.850;10.454;2023-08-06T12:59:43;3.70;;;1.50;;
19798;SDS011;10059;59.850;10.454;2023-08-06T13:02:10;1.87;;;1.10;;
19798;SDS011;10059;59.850;10.454;2023-08-06T13:04:36;2.37;;;1.20;;
19798;SDS011;10059;59.850;10.454;2023-08-06T13:07:03;4.20;;;1.37;;
19798;SDS011;10059;59.850;10.454;2023-08-06T13:09:31;3.40;;;1.27;;
19798;SDS011;10059;59.850;10.454;2023-08-06T13:11:59;2.70;;;1.20;;
19798;SDS011;10059;59.850;10.454;2023-08-06T13:14:30;3.57;;;1.50;;
19798;SDS011;10059;59.850;10.454;2023-08-06T13:16:57;2.93;;;1.20;;
19798;SDS011;10059;59.850;10.454;2023-08-06T13:19:23;4.37;;;1.30;;
19798;SDS011;10059;59.850;10.454;2023-08-06T13:22:00;4.80;;;1.33;;
19798;SDS011;10059;59.850;10.454;2023-08-06T13:24:29;6.63;;;1.43;;
19798;SDS011;10059;59.850;10.454;2023-08-06T13:26:57;2.90;;;1.50;;
19798;SDS011;10059;59.850;10.454;2023-08-06T13:29:26;4.80;;;1.40;;
19798;SDS011;10059;59.850;10.454;2023-08-06T13:31:53;2.80;;;1.40;;
19798;SDS011;10059;59.850;10.454;2023-08-06T13:34:20;4.47;;;1.30;;
19798;SDS011;10059;59.850;10.454;2023-08-06T13:36:47;3.17;;;1.33;;
19798;SDS011;10059;59.850;10.454;2023-08-06T13:39:15;2.13;;;1.30;;
19798;SDS011;10059;59.850;10.454;2023-08-06T13:41:42;3.60;;;1.60;;
19798;SDS011;10059;59.850;10.454;2023-08-06T13:44:09;4.50;;;1.60;;
19798;SDS011;10059;59.850;10.454;2023-08-06T13:46:40;3.30;;;1.30;;
19798;SDS011;10059;59.850;10.454;2023-08-06T13:49:07;3.17;;;1.50;;
19798;SDS011;10059;59.850;10.454;2023-08-06T13:51:34;2.70;;;1.70;;
19798;SDS011;10059;59.850;10.454;2023-08-06T13:54:01;2.90;;;1.33;;
19798;SDS011;10059;59.850;10.454;2023-08-06T13:56:28;5.77;;;1.60;;
19798;SDS011;10059;59.850;10.454;2023-08-06T13:58:55;3.67;;;1.30;;
19798;SDS011;10059;59.850;10.454;2023-08-06T14:01:22;3.40;;;1.50;;
19798;SDS011;10059;59.850;10.454;2023-08-06T14:03:50;3.13;;;1.43;;
19798;SDS011;10059;59.850;10.454;2023-08-06T14:06:18;3.20;;;1.60;;
19798;SDS011;10059;59.850;10.454;2023-08-06T14:08:45;4.27;;;1.53;;
19798;SDS011;10059;59.850;10.454;2023-08-06T14:11:12;6.23;;;1.37;;
19798;SDS011;10059;59.850;10.454;2023-08-06T14:13:46;3.10;;;1.47;;
19798;SDS011;10059;59.850;10.454;2023-08-06T14:16:13;2.50;;;1.47;;
19798;SDS011;10059;59.850;10.454;2023-08-06T14:18:40;4.93;;;1.70;;
19798;SDS011;10059;59.850;10.454;2023-08-06T14:21:08;3.37;;;1.33;;
19798;SDS011;10059;59.850;10.454;2023-08-06T14:23:35;3.53;;;1.50;;
19798;SDS011;10059;59.850;10.454;2023-08-06T14:26:02;3.50;;;1.50;;
19798;SDS011;10059;59.850;10.454;2023-08-06T14:28:29;4.23;;;1.60;;
19798;SDS011;10059;59.850;10.454;2023-08-06T14:30:56;5.97;;;1.87;;
19798;SDS011;10059;59.850;10.454;2023-08-06T14:33:23;5.23;;;1.67;;
19798;SDS011;10059;59.850;10.454;2023-08-06T14:35:50;6.17;;;1.60;;
19798;SDS011;10059;59.850;10.454;2023-08-06T14:38:18;5.77;;;1.97;;
19798;SDS011;10059;59.850;10.454;2023-08-06T14:40:44;3.73;;;1.60;;
19798;SDS011;10059;59.850;10.454;2023-08-06T14:43:11;4.37;;;1.40;;
19798;SDS011;10059;59.850;10.454;2023-08-06T14:45:38;3.60;;;1.60;;
19798;SDS011;10059;59.850;10.454;2023-08-06T14:48:05;4.07;;;1.57;;
19798;SDS011;10059;59.850;10.454;2023-08-06T14:50:32;2.73;;;1.40;;